• Join FlightAware (Why Join?)
  • Login
  • US Flag 
10:41AM EDT


 

Airport Tracker/Info


-or-


 

Live Flight TrackerFlight Track Log ✈ SKW7367 ✈ 18-Apr-2014 ✈ KDTW - KAPN

Flight Track Log - Related Links

Times and Time Zones

All times are in EDT time to prevent confusion due to time zone crossing. See the SKW7367 flight status page for this flight to view local times or setup timezone preferences in your user account.

Time Position Orientation Groundspeed Altitude Reporting Facility
EDT Latitude Longitude Course Direction KTS MPH feet Rate Location/Type
04:02PM 42.2128 -83.3625 North 148 170 1,300  Level Cleveland Center
04:04PM 42.1486 -83.4539 227° Southwest 222 255 6,800 3,120 Climbing Cleveland Center
04:05PM 42.4701 -83.3500 North  Level FlightAware Approximate
04:05PM 42.1567 -83.5433 277° West 255 293 10,000  Level Cleveland Center
04:06PM 42.5602 -83.3500 North  Level FlightAware Approximate
04:06PM 42.2083 -83.6042 319° Northwest 290 334 10,000  Level Cleveland Center
04:06PM 42.2203 -83.6078 347° North 283 326 10,000 2,100 Level Cleveland Center
04:07PM 42.6502 -83.3500 North  Level FlightAware Approximate
04:07PM 42.2969 -83.6514 337° Northwest 292 336 12,700  Level Cleveland Center
04:08PM 42.3878 -83.6317 North 343 395 14,600 1,080 Climbing Cleveland Center
04:09PM 42.4797 -83.6022 13° North 340 391 15,000 180 Climbing Cleveland Center
04:10PM 42.5650 -83.6386 343° North 321 369 15,000  Level Cleveland Center
04:11PM 42.6650 -83.6831 342° North 319 367 15,000  Level Cleveland Center
04:12PM 42.7478 -83.7203 342° North 316 364 15,000  Level Cleveland Center
04:13PM 42.8308 -83.7575 342° North 315 362 15,000  Level Cleveland Center
04:14PM 42.9133 -83.7942 342° North 315 362 15,000  Level Cleveland Center
04:15PM 42.9961 -83.8322 341° North 314 361 15,000  Level Cleveland Center
04:16PM 43.0792 -83.8694 342° North 314 361 15,000  Level Cleveland Center
04:17PM 43.1764 -83.9125 342° North 311 358 15,000  Level Cleveland Center
04:18PM 43.2592 -83.9514 341° North 310 357 15,000  Level Cleveland Center
04:19PM 43.3403 -83.9889 341° North 310 357 15,000  Level Cleveland Center
04:20PM 43.4172 -84.0236 342° North 311 358 15,000  Level Cleveland Center
04:21PM 43.5164 -84.0678 342° North 311 358 15,000  Level Cleveland Center
04:22PM 43.6086 -84.0506 North 340 391 15,000  Level Cleveland Center
04:23PM 43.7014 -84.0211 13° North 341 392 15,000  Level Cleveland Center
04:24PM 43.7944 -83.9889 14° North 342 394 15,000  Level Cleveland Center
04:25PM 43.8878 -83.9592 13° North 345 397 15,000 -60 Level Minneapolis Center
04:26PM 43.9847 -83.9272 13° North 345 397 14,900 -60 Descending Minneapolis Center
04:27PM 44.0733 -83.8897 17° North 338 389 14,900  Level Minneapolis Center
04:28PM 44.1653 -83.8517 17° North 326 375 14,900  Level Minneapolis Center
04:29PM 44.2503 -83.8167 16° North 325 374 14,900 -300 Level Minneapolis Center
04:30PM 44.3433 -83.7778 17° North 324 373 14,300 -1,800 Descending Minneapolis Center
04:31PM 44.4236 -83.7453 16° North 308 354 11,200 -2,280 Descending Minneapolis Center
04:33PM 44.5081 -83.7100 17° North 296 341 9,600 -1,680 Descending Minneapolis Center
04:34PM 44.5797 -83.6797 17° North 278 320 7,800 -1,500 Descending Minneapolis Center
04:35PM 44.6542 -83.6486 17° North 267 307 6,600 -1,200 Descending Minneapolis Center
04:36PM 44.7211 -83.6203 17° North 260 299 5,300 -900 Descending Minneapolis Center
04:37PM 44.7936 -83.5894 17° North 258 297 4,800 -540 Descending Minneapolis Center
04:38PM 44.8594 -83.5628 16° North 235 270 4,200 -720 Descending Minneapolis Center
04:39PM 44.9144 -83.5592 North 206 237 3,400 -720 Descending Minneapolis Center
04:40PM 44.9625 -83.5611 358° North 166 191 2,800 -660 Descending Minneapolis Center
04:41PM 45.0017 -83.5611 360° North 148 170 2,100 -720 Descending Minneapolis Center
04:42PM 45.0381 -83.5608 360° North 129 148 1,400 -660 Descending Minneapolis Center
04:43PM 45.0683 -83.5606 360° North 124 143 800 -600 Descending Minneapolis Center
04:45PM 45.0667 -83.5500 North  Level FlightAware Approximate
04:52PM 45.0781 -83.5603 North  Level Estimated